Time;durP1;ratioP1;P1;durP2;ratioP2;P2;SDS_P1;SDS_P2;PMS_P1;PMS_P2;Temp;Humidity;BMP_temperature;BMP_pressure;BME280_temperature;BME280_humidity;BME280_pressure;Samples;Min_cycle;Max_cycle;Signal;HPM_P1;HPM_P2
2021/05/08 00:00:40;;;;;;;4.00;2.03;;;;;;;18.63;50.00;96836.78;4871798;29;20036;-74
2021/05/08 00:03:06;;;;;;;6.85;2.00;;;;;;;18.63;50.10;96846.75;4861082;29;20045;-74
2021/05/08 00:05:32;;;;;;;5.75;2.25;;;;;;;18.73;48.25;96847.47;4885712;29;20037;-74
2021/05/08 00:07:57;;;;;;;4.85;1.90;;;;;;;18.86;48.42;96851.41;4868646;29;20037;-74
2021/05/08 00:10:23;;;;;;;4.53;1.70;;;;;;;19.00;47.14;96858.09;4845638;29;20037;-74
2021/05/08 00:12:49;;;;;;;5.78;1.80;;;;;;;19.01;46.73;96851.63;4845445;29;20045;-74
2021/05/08 00:15:16;;;;;;;7.45;2.00;;;;;;;19.03;46.78;96870.47;4845689;29;20114;-74
2021/05/08 00:17:42;;;;;;;6.32;2.20;;;;;;;18.98;47.29;96870.94;4892885;29;20032;-74
2021/05/08 00:20:09;;;;;;;7.40;1.95;;;;;;;18.94;46.99;96862.31;4896351;29;20092;-74
2021/05/08 00:22:35;;;;;;;5.03;1.98;;;;;;;18.98;47.23;96873.66;4879673;29;20107;-74
2021/05/08 00:25:01;;;;;;;8.38;1.90;;;;;;;18.89;46.85;96875.50;4848608;29;20047;-75
2021/05/08 00:27:26;;;;;;;4.13;2.10;;;;;;;18.83;46.29;96868.00;4858274;29;20040;-75
2021/05/08 00:29:52;;;;;;;5.63;1.67;;;;;;;18.85;45.86;96871.44;4853021;29;20413;-74
2021/05/08 00:32:17;;;;;;;5.57;1.77;;;;;;;18.89;45.79;96875.50;4865083;29;20032;-74
2021/05/08 00:34:43;;;;;;;3.80;1.77;;;;;;;18.88;46.02;96876.53;4856264;29;20133;-75
2021/05/08 00:37:09;;;;;;;2.13;1.48;;;;;;;18.89;44.84;96877.34;4853262;29;20040;-75
2021/05/08 00:39:34;;;;;;;3.97;1.70;;;;;;;18.95;44.71;96901.09;4868813;29;20138;-75
2021/05/08 00:42:00;;;;;;;6.85;2.00;;;;;;;18.93;45.62;96909.41;4853150;29;20071;-74
2021/05/08 00:44:26;;;;;;;3.17;1.50;;;;;;;18.86;45.74;96921.88;4877826;29;20116;-74
2021/05/08 00:46:52;;;;;;;14.50;2.30;;;;;;;18.73;46.85;96935.03;4845877;29;20101;-75
2021/05/08 00:49:19;;;;;;;5.18;2.08;;;;;;;18.56;46.44;96933.22;4863768;29;20032;-75
2021/05/08 00:51:45;;;;;;;2.45;1.88;;;;;;;18.37;47.79;96957.75;4864991;29;20509;-74
2021/05/08 00:54:11;;;;;;;6.40;2.13;;;;;;;18.17;47.76;96949.00;4841270;29;20028;-74
2021/05/08 00:56:37;;;;;;;6.53;2.05;;;;;;;18.05;48.75;96960.22;4872212;29;20550;-74
2021/05/08 00:59:02;;;;;;;11.88;2.38;;;;;;;17.93;50.07;96962.31;4888549;29;20493;-75
2021/05/08 01:01:28;;;;;;;5.78;2.20;;;;;;;17.76;50.65;96972.13;4889390;29;20029;-75
2021/05/08 01:03:53;;;;;;;5.25;1.90;;;;;;;17.64;51.47;96977.91;4889293;29;20425;-74
2021/05/08 01:06:19;;;;;;;6.82;2.90;;;;;;;17.56;55.54;96989.50;4871015;29;20033;-75
2021/05/08 01:08:45;;;;;;;9.82;3.05;;;;;;;17.46;57.42;96998.63;4879149;29;20186;-74
2021/05/08 01:11:10;;;;;;;4.38;2.65;;;;;;;17.27;58.54;97007.69;4874885;29;20036;-74
2021/05/08 01:13:36;;;;;;;11.10;3.60;;;;;;;17.14;59.55;97018.81;4882625;29;20029;-74
2021/05/08 01:16:02;;;;;;;11.07;3.53;;;;;;;17.02;62.45;97032.66;4882325;29;20048;-74
2021/05/08 01:18:29;;;;;;;7.65;4.22;;;;;;;16.90;64.20;97041.94;4877785;29;20390;-74
2021/05/08 01:20:55;;;;;;;11.80;4.65;;;;;;;16.77;65.25;97056.63;4879911;29;20036;-74
2021/05/08 01:23:21;;;;;;;11.30;5.05;;;;;;;16.63;66.24;97064.31;4866940;29;20541;-75
2021/05/08 01:25:46;;;;;;;13.88;5.80;;;;;;;16.55;67.50;97069.59;4867486;29;20431;-74
2021/05/08 01:28:12;;;;;;;13.85;4.82;;;;;;;16.43;68.17;97071.53;4874069;29;20137;-74
2021/05/08 01:30:38;;;;;;;10.10;4.43;;;;;;;16.42;68.59;97080.66;4866831;29;20465;-74
2021/05/08 01:33:05;;;;;;;9.10;5.45;;;;;;;16.36;69.03;97086.63;4858808;29;20033;-74
2021/05/08 01:35:31;;;;;;;9.10;6.22;;;;;;;16.23;69.42;97086.91;4854255;29;20084;-74
2021/05/08 01:37:57;;;;;;;13.35;7.07;;;;;;;16.16;70.62;97109.19;4863321;29;20081;-74
2021/05/08 01:40:37;;;;;;;11.02;7.50;;;;;;;15.96;71.76;97121.81;4884106;29;20099;-74
2021/05/08 01:43:02;;;;;;;12.60;8.23;;;;;;;15.72;73.31;97118.59;4874215;29;20033;-74
2021/05/08 01:45:28;;;;;;;12.32;8.32;;;;;;;15.69;73.54;97133.22;4894422;29;20180;-74
2021/05/08 01:47:54;;;;;;;12.30;8.38;;;;;;;15.54;73.62;97139.97;4863703;29;20091;-74
2021/05/08 01:50:22;;;;;;;12.10;8.85;;;;;;;15.49;73.65;97139.53;4871208;29;20108;-74
2021/05/08 01:52:47;;;;;;;12.23;9.40;;;;;;;15.42;74.53;97142.84;4894662;29;20105;-74
2021/05/08 01:55:16;;;;;;;13.75;9.50;;;;;;;15.37;75.28;97154.06;4888633;29;20548;-74
2021/05/08 01:57:48;;;;;;;11.70;9.80;;;;;;;15.26;75.50;97148.72;4871106;29;20446;-74
2021/05/08 02:00:24;;;;;;;;;;;;;;;15.15;75.79;97154.19;4850603;29;20425;-73
2021/05/08 02:02:51;;;;;;;15.18;10.43;;;;;;;15.02;76.13;97150.84;4874463;29;19920;-74
2021/05/08 02:05:17;;;;;;;14.32;9.23;;;;;;;14.88;76.21;97157.44;4893446;29;20037;-74
2021/05/08 02:07:42;;;;;;;17.17;10.10;;;;;;;14.91;77.10;97164.41;4871097;29;20037;-74
2021/05/08 02:10:10;;;;;;;16.00;9.88;;;;;;;14.84;77.41;97179.34;4881062;29;20032;-74
2021/05/08 02:12:38;;;;;;;17.63;10.40;;;;;;;14.75;77.44;97175.63;4881645;29;20021;-74
2021/05/08 02:15:09;;;;;;;16.88;9.80;;;;;;;14.62;77.22;97186.56;4865429;29;20063;-74
2021/05/08 02:17:35;;;;;;;15.05;9.27;;;;;;;14.61;77.13;97189.41;4870777;29;20481;-75
2021/05/08 02:20:01;;;;;;;18.08;10.40;;;;;;;14.53;78.33;97195.41;4878075;29;20092;-74
2021/05/08 02:22:27;;;;;;;14.55;9.05;;;;;;;14.46;77.88;97196.88;4866152;29;20033;-74
2021/05/08 02:24:52;;;;;;;13.65;9.82;;;;;;;14.32;77.70;97196.28;4873708;29;20032;-74
2021/05/08 02:27:19;;;;;;;16.05;9.73;;;;;;;14.26;77.76;97200.34;4878913;29;20072;-74
2021/05/08 02:29:44;;;;;;;11.98;9.02;;;;;;;14.26;78.19;97205.72;4852936;29;20028;-74
2021/05/08 02:32:10;;;;;;;16.17;8.75;;;;;;;14.19;78.30;97206.34;4864604;29;20511;-74
2021/05/08 02:34:35;;;;;;;13.18;10.10;;;;;;;14.08;78.28;97207.25;4879254;29;20466;-74
2021/05/08 02:37:01;;;;;;;12.00;9.23;;;;;;;14.03;77.96;97212.97;4878463;29;20100;-74
2021/05/08 02:39:27;;;;;;;11.32;9.63;;;;;;;13.98;77.64;97217.03;4854572;29;20079;-74
2021/05/08 02:41:52;;;;;;;16.20;9.48;;;;;;;13.86;78.24;97220.69;4885590;29;20556;-75
2021/05/08 02:44:18;;;;;;;11.93;8.80;;;;;;;13.92;77.66;97230.97;4889954;29;20032;-74
2021/05/08 02:46:45;;;;;;;11.25;8.73;;;;;;;13.88;77.70;97240.25;4881168;29;20024;-74
2021/05/08 02:49:10;;;;;;;11.32;8.73;;;;;;;13.73;78.24;97238.78;4856661;29;20493;-74
2021/05/08 02:51:36;;;;;;;12.77;8.75;;;;;;;13.67;78.21;97247.34;4862276;29;20036;-74
2021/05/08 02:54:02;;;;;;;10.95;8.90;;;;;;;13.57;78.38;97249.88;4862414;29;20021;-74
2021/05/08 02:56:27;;;;;;;20.42;8.52;;;;;;;13.60;77.85;97254.19;4857224;29;20091;-74
2021/05/08 02:58:53;;;;;;;12.23;8.15;;;;;;;13.58;76.86;97248.91;4874825;29;20033;-75
2021/05/08 03:01:18;;;;;;;9.73;7.70;;;;;;;13.49;77.14;97263.94;4855773;29;20071;-75
2021/05/08 03:03:44;;;;;;;9.70;8.43;;;;;;;13.54;78.11;97267.13;4884959;29;20040;-74
2021/05/08 03:06:09;;;;;;;9.73;7.82;;;;;;;13.61;76.35;97272.88;4870019;29;20039;-74
2021/05/08 03:08:35;;;;;;;11.38;8.60;;;;;;;13.56;75.85;97275.06;4872942;29;20405;-75
2021/05/08 03:11:00;;;;;;;21.25;9.48;;;;;;;13.48;76.12;97272.09;4890337;29;20029;-75
2021/05/08 03:13:26;;;;;;;43.63;10.32;;;;;;;13.51;76.22;97288.00;4888639;29;20051;-74
2021/05/08 03:15:52;;;;;;;14.75;8.98;;;;;;;13.51;76.13;97291.53;4858974;29;20502;-74
2021/05/08 03:18:17;;;;;;;12.00;7.90;;;;;;;13.47;76.29;97279.31;4877109;29;20044;-74
2021/05/08 03:20:43;;;;;;;12.27;8.40;;;;;;;13.60;75.83;97287.28;4846510;29;20128;-74
2021/05/08 03:23:08;;;;;;;10.80;8.70;;;;;;;13.58;75.29;97299.97;4861668;29;20025;-74
2021/05/08 03:25:34;;;;;;;18.73;8.38;;;;;;;13.56;74.80;97302.81;4872202;29;20479;-75
2021/05/08 03:27:59;;;;;;;9.65;8.23;;;;;;;13.66;75.35;97304.78;4864766;29;20064;-74
2021/05/08 03:30:25;;;;;;;14.70;8.20;;;;;;;13.73;74.77;97304.16;4887278;29;20039;-74
2021/05/08 03:32:51;;;;;;;15.20;8.43;;;;;;;13.88;73.76;97318.22;4878443;29;20479;-74
2021/05/08 03:35:16;;;;;;;11.88;7.75;;;;;;;13.83;73.70;97331.19;4876898;29;20076;-74
2021/05/08 03:37:42;;;;;;;13.48;8.90;;;;;;;13.87;74.20;97330.81;4865418;29;20464;-74
2021/05/08 03:40:08;;;;;;;10.13;8.25;;;;;;;13.90;73.16;97332.41;4857475;29;20040;-74
2021/05/08 03:42:33;;;;;;;14.07;8.48;;;;;;;13.94;73.09;97342.78;4853520;29;20413;-74
2021/05/08 03:44:59;;;;;;;9.80;7.78;;;;;;;13.90;73.29;97337.81;4885977;29;20041;-74
2021/05/08 03:47:24;;;;;;;12.23;8.02;;;;;;;13.97;73.56;97352.44;4868887;29;20032;-74
2021/05/08 03:49:50;;;;;;;11.68;7.45;;;;;;;13.95;73.20;97355.28;4873639;29;20179;-74
2021/05/08 03:52:15;;;;;;;12.15;8.43;;;;;;;13.98;73.21;97370.31;4871902;29;20397;-74
2021/05/08 03:54:41;;;;;;;13.20;8.02;;;;;;;14.07;72.49;97373.13;4869013;29;20037;-74
2021/05/08 03:57:07;;;;;;;9.60;7.82;;;;;;;14.07;72.39;97372.28;4860190;29;20029;-74
2021/05/08 03:59:32;;;;;;;12.27;8.15;;;;;;;14.13;72.31;97387.94;4872086;29;20037;-74
2021/05/08 04:01:58;;;;;;;8.95;7.85;;;;;;;14.16;71.51;97394.91;4880036;29;20089;-75
2021/05/08 04:04:24;;;;;;;16.20;8.50;;;;;;;14.11;72.36;97384.50;4855776;29;20033;-74
2021/05/08 04:06:49;;;;;;;9.95;8.10;;;;;;;14.20;71.37;97401.75;4885481;29;20496;-75
2021/05/08 04:09:15;;;;;;;13.55;8.32;;;;;;;14.16;71.87;97398.44;4845479;29;20037;-75
2021/05/08 04:11:40;;;;;;;9.73;7.65;;;;;;;14.18;71.23;97404.56;4863873;29;20028;-74
2021/05/08 04:14:06;;;;;;;9.18;7.65;;;;;;;14.12;70.55;97405.03;4849897;29;20044;-74
2021/05/08 04:16:33;;;;;;;9.43;7.55;;;;;;;14.11;71.20;97419.47;4868621;29;20033;-75
2021/05/08 04:19:02;;;;;;;8.57;6.47;;;;;;;14.12;70.07;97422.03;4850849;29;20412;-74
2021/05/08 04:21:28;;;;;;;11.57;6.90;;;;;;;14.14;70.92;97432.69;4870635;29;20447;-75
2021/05/08 04:23:54;;;;;;;8.90;6.90;;;;;;;14.20;71.04;97439.41;4873298;29;20081;-74
2021/05/08 04:26:19;;;;;;;7.78;6.97;;;;;;;14.24;70.08;97433.69;4856212;29;20040;-75
2021/05/08 04:28:45;;;;;;;11.27;7.13;;;;;;;14.22;70.16;97432.94;4868368;29;20038;-75
2021/05/08 04:31:10;;;;;;;9.65;7.47;;;;;;;14.26;70.42;97436.25;4869167;29;20032;-75
2021/05/08 04:33:36;;;;;;;10.38;7.13;;;;;;;14.32;69.97;97431.25;4872292;29;20029;-74
2021/05/08 04:36:02;;;;;;;23.08;7.43;;;;;;;14.32;69.74;97442.00;4869931;29;20057;-74
2021/05/08 04:38:27;;;;;;;15.85;6.82;;;;;;;14.28;68.98;97440.53;4882219;29;20493;-73
2021/05/08 04:40:56;;;;;;;8.40;6.20;;;;;;;14.20;68.74;97445.66;4864985;29;20489;-87
2021/05/08 04:43:22;;;;;;;9.25;6.65;;;;;;;14.15;69.14;97455.06;4848821;29;20128;-77
2021/05/08 04:45:48;;;;;;;7.88;6.55;;;;;;;14.08;69.59;97449.31;4849133;29;20120;-77
2021/05/08 04:48:27;;;;;;;10.65;6.75;;;;;;;13.94;70.57;97453.06;4864523;29;20093;-74
2021/05/08 04:50:53;;;;;;;15.18;8.10;;;;;;;13.99;70.71;97441.94;4862476;29;20030;-74
2021/05/08 04:53:20;;;;;;;8.13;6.93;;;;;;;13.99;70.27;97439.25;4879450;29;20024;-74
2021/05/08 04:55:49;;;;;;;8.93;6.65;;;;;;;13.99;70.46;97450.03;4882966;29;20021;-74
2021/05/08 04:58:15;;;;;;;7.97;6.53;;;;;;;14.02;70.90;97455.16;4868656;29;20509;-74
2021/05/08 05:00:41;;;;;;;9.02;6.70;;;;;;;14.21;71.06;97468.03;4850722;29;20029;-74
2021/05/08 05:03:07;;;;;;;9.63;6.50;;;;;;;14.47;70.51;97475.81;4882831;29;20036;-74
2021/05/08 05:05:32;;;;;;;13.90;7.72;;;;;;;14.64;69.23;97474.50;4882423;29;20084;-74
2021/05/08 05:07:58;;;;;;;8.70;7.10;;;;;;;14.76;69.85;97486.13;4867103;29;20035;-74
2021/05/08 05:10:23;;;;;;;9.00;7.00;;;;;;;14.85;69.18;97493.47;4883037;29;20111;-74
2021/05/08 05:12:49;;;;;;;11.43;7.05;;;;;;;15.01;68.41;97499.34;4888585;29;20125;-75
2021/05/08 05:15:17;;;;;;;15.48;7.43;;;;;;;15.04;68.23;97491.84;4856296;29;20162;-74
2021/05/08 05:17:43;;;;;;;11.65;6.45;;;;;;;15.12;68.51;97510.97;4858653;29;20031;-84
2021/05/08 05:20:10;;;;;;;13.85;4.20;;;;;;;15.22;66.06;97505.69;4859960;29;20031;-81
2021/05/08 05:22:36;;;;;;;3.85;3.40;;;;;;;15.54;63.74;97508.44;4889154;29;20104;-84
2021/05/08 05:25:03;;;;;;;7.75;2.85;;;;;;;15.91;62.36;97523.31;4862612;29;20060;-82
2021/05/08 05:27:33;;;;;;;4.07;3.08;;;;;;;16.23;60.23;97512.50;4865069;29;20056;-89
2021/05/08 05:29:59;;;;;;;5.78;2.30;;;;;;;16.48;59.16;97495.03;4865710;29;20037;-83
2021/05/08 05:32:25;;;;;;;5.03;2.50;;;;;;;16.89;58.54;97523.91;4858114;29;20033;-82
2021/05/08 05:34:50;;;;;;;2.65;2.33;;;;;;;16.94;58.02;97525.19;4854858;29;20064;-77
2021/05/08 05:37:16;;;;;;;2.40;2.20;;;;;;;17.02;57.90;97532.63;4868626;29;20044;-75
2021/05/08 05:39:42;;;;;;;2.42;2.22;;;;;;;17.08;57.50;97529.38;4873952;29;20044;-75
2021/05/08 05:42:08;;;;;;;4.85;2.40;;;;;;;17.04;55.60;97530.66;4873716;29;20040;-75
2021/05/08 05:44:33;;;;;;;2.30;2.10;;;;;;;17.29;55.81;97524.75;4874802;29;20496;-75
2021/05/08 05:46:59;;;;;;;7.38;2.28;;;;;;;17.88;54.98;97546.44;4862416;29;20041;-74
2021/05/08 05:49:24;;;;;;;3.38;1.83;;;;;;;18.16;52.30;97552.88;4848362;29;20128;-74
2021/05/08 05:51:50;;;;;;;5.85;2.00;;;;;;;18.82;51.09;97552.03;4871921;29;20040;-74
2021/05/08 05:54:16;;;;;;;3.15;2.30;;;;;;;19.04;50.79;97552.69;4881349;29;20512;-74
2021/05/08 05:56:41;;;;;;;5.53;2.30;;;;;;;18.67;51.47;97560.75;4857871;29;20036;-75
2021/05/08 05:59:07;;;;;;;7.85;3.78;;;;;;;18.70;52.52;97572.13;4855402;29;20037;-74
2021/05/08 06:01:33;;;;;;;6.25;3.58;;;;;;;18.59;52.36;97558.75;4865460;29;20032;-73
2021/05/08 06:03:58;;;;;;;6.63;2.90;;;;;;;18.47;53.46;97557.16;4853264;29;20153;-74
2021/05/08 06:06:24;;;;;;;4.97;2.90;;;;;;;18.62;52.01;97557.59;4867895;29;20039;-75
2021/05/08 06:08:49;;;;;;;20.02;10.90;;;;;;;18.92;51.97;97560.09;4873270;29;20420;-75
2021/05/08 06:11:15;;;;;;;12.30;7.03;;;;;;;19.07;50.35;97564.09;4867766;29;20037;-75
2021/05/08 06:13:41;;;;;;;14.18;9.13;;;;;;;19.27;49.32;97564.88;4881413;29;20511;-75
2021/05/08 06:16:06;;;;;;;7.32;2.60;;;;;;;18.95;50.81;97566.09;4887755;29;20053;-75
2021/05/08 06:18:34;;;;;;;18.02;10.90;;;;;;;18.52;51.53;97582.00;4887282;29;20130;-74
2021/05/08 06:21:00;;;;;;;4.30;2.83;;;;;;;17.65;53.84;97575.59;4855119;29;20048;-74
2021/05/08 06:23:25;;;;;;;3.65;2.60;;;;;;;17.41;55.50;97590.44;4879406;29;20029;-74
2021/05/08 06:25:51;;;;;;;3.13;2.78;;;;;;;17.25;56.17;97591.78;4848191;29;20036;-75
2021/05/08 06:28:17;;;;;;;3.38;2.70;;;;;;;16.86;57.14;97591.72;4863890;29;20442;-74
2021/05/08 06:30:43;;;;;;;4.28;2.70;;;;;;;16.62;58.71;97587.41;4870670;29;20039;-74
2021/05/08 06:33:08;;;;;;;6.05;2.40;;;;;;;16.36;58.76;97601.41;4879185;29;20032;-74
2021/05/08 06:35:34;;;;;;;2.92;2.55;;;;;;;16.65;59.99;97600.66;4847376;29;20490;-74
2021/05/08 06:37:59;;;;;;;4.35;3.15;;;;;;;16.63;57.86;97594.53;4857179;29;20477;-75
2021/05/08 06:40:25;;;;;;;10.43;3.33;;;;;;;17.01;57.54;97601.19;4890230;29;20055;-74
2021/05/08 06:42:51;;;;;;;6.18;4.00;;;;;;;17.33;55.55;97601.91;4873404;29;20036;-74
2021/05/08 06:45:17;;;;;;;5.93;3.00;;;;;;;17.27;56.43;97613.28;4848722;29;20135;-74
2021/05/08 06:47:42;;;;;;;10.27;4.25;;;;;;;17.11;56.01;97608.34;4863728;29;20044;-76
2021/05/08 06:50:08;;;;;;;3.97;3.00;;;;;;;16.94;56.48;97610.81;4869416;29;20040;-74
2021/05/08 06:52:34;;;;;;;6.57;4.30;;;;;;;16.91;56.54;97600.28;4848305;29;20021;-75
2021/05/08 06:54:59;;;;;;;7.80;4.68;;;;;;;16.92;56.82;97602.81;4847662;29;20037;-75
2021/05/08 06:57:25;;;;;;;4.13;2.55;;;;;;;17.21;56.75;97600.28;4875042;29;20033;-75
2021/05/08 06:59:50;;;;;;;4.75;2.45;;;;;;;17.47;55.21;97589.88;4872656;29;20041;-76
2021/05/08 07:02:16;;;;;;;2.60;2.40;;;;;;;17.66;54.19;97592.66;4854213;29;20036;-75
2021/05/08 07:04:41;;;;;;;4.65;3.63;;;;;;;18.59;52.74;97604.81;4846735;29;20033;-75
2021/05/08 07:07:07;;;;;;;5.78;2.67;;;;;;;19.43;49.64;97595.84;4894117;29;20041;-74
2021/05/08 07:09:32;;;;;;;7.22;4.55;;;;;;;20.05;48.42;97604.25;4849112;29;20077;-74
2021/05/08 07:11:58;;;;;;;5.50;2.90;;;;;;;20.54;44.97;97610.06;4887684;29;20064;-74
2021/05/08 07:14:24;;;;;;;21.15;4.03;;;;;;;20.66;45.13;97618.84;4868320;29;20144;-74
2021/05/08 07:16:49;;;;;;;6.75;4.32;;;;;;;21.96;42.87;97607.88;4869472;29;20037;-74
2021/05/08 07:19:15;;;;;;;5.22;2.25;;;;;;;21.88;42.33;97617.81;4843418;29;20034;-75
2021/05/08 07:21:40;;;;;;;2.25;2.05;;;;;;;21.86;42.14;97614.41;4860115;29;20026;-74
2021/05/08 07:24:07;;;;;;;2.67;2.08;;;;;;;21.51;42.89;97615.41;4863547;29;20096;-75
2021/05/08 07:26:33;;;;;;;3.22;2.92;;;;;;;21.08;43.53;97622.63;4875265;29;20025;-75
2021/05/08 07:29:00;;;;;;;14.05;4.40;;;;;;;21.28;42.52;97630.59;4854660;29;20045;-75
2021/05/08 07:31:26;;;;;;;5.57;2.40;;;;;;;21.18;42.96;97624.38;4864700;29;20516;-76
2021/05/08 07:33:52;;;;;;;3.25;2.30;;;;;;;20.57;43.71;97625.22;4877312;29;20040;-75
2021/05/08 07:36:18;;;;;;;8.02;3.95;;;;;;;20.14;45.48;97617.75;4870747;29;20037;-75
2021/05/08 07:38:44;;;;;;;3.40;2.30;;;;;;;19.80;47.24;97620.25;4860296;29;20100;-74
2021/05/08 07:41:09;;;;;;;4.05;2.25;;;;;;;19.28;47.53;97623.56;4864673;29;20037;-74
2021/05/08 07:43:35;;;;;;;8.57;3.80;;;;;;;18.60;50.66;97619.22;4867331;29;20036;-75
2021/05/08 07:46:01;;;;;;;7.78;2.40;;;;;;;18.13;51.79;97626.28;4876835;29;20040;-75
2021/05/08 07:48:27;;;;;;;3.70;2.90;;;;;;;17.69;53.26;97625.72;4878232;29;20064;-75
2021/05/08 07:50:53;;;;;;;2.42;1.92;;;;;;;17.59;52.04;97622.16;4854015;29;20497;-75
2021/05/08 07:53:18;;;;;;;2.28;2.00;;;;;;;17.55;52.39;97627.94;4869071;29;20021;-74
2021/05/08 07:55:44;;;;;;;10.73;2.22;;;;;;;17.97;52.68;97631.34;4859924;29;20382;-75
2021/05/08 07:58:10;;;;;;;15.75;2.22;;;;;;;18.88;50.36;97638.19;4854833;29;20443;-74
2021/05/08 08:00:35;;;;;;;8.25;2.40;;;;;;;19.51;48.77;97641.19;4845821;29;20048;-74
2021/05/08 08:03:01;;;;;;;7.93;1.20;;;;;;;19.43;45.23;97641.09;4846665;29;20033;-74
2021/05/08 08:05:27;;;;;;;9.32;3.75;;;;;;;19.73;46.15;97648.13;4880063;29;20108;-75
2021/05/08 08:07:52;;;;;;;12.77;2.78;;;;;;;20.68;42.41;97643.13;4864392;29;20063;-75
2021/05/08 08:10:18;;;;;;;3.70;1.23;;;;;;;21.45;40.53;97638.69;4853855;29;20040;-75
2021/05/08 08:12:44;;;;;;;7.03;2.08;;;;;;;22.07;40.39;97639.41;4861430;29;20089;-75
2021/05/08 08:15:11;;;;;;;2.15;1.40;;;;;;;22.09;39.98;97631.91;4860876;29;20140;-75
2021/05/08 08:17:36;;;;;;;2.40;0.80;;;;;;;22.18;39.74;97646.44;4884586;29;20113;-75
2021/05/08 08:20:05;;;;;;;1.83;1.00;;;;;;;22.59;38.81;97656.44;4868626;29;20115;-75
2021/05/08 08:22:31;;;;;;;153.48;7.85;;;;;;;22.82;38.59;97665.72;4853251;29;20033;-75
2021/05/08 08:24:57;;;;;;;6.80;1.20;;;;;;;22.71;37.24;97649.66;4876073;29;20100;-74
2021/05/08 08:27:23;;;;;;;1.45;0.98;;;;;;;22.99;38.83;97656.50;4861264;29;20085;-75
2021/05/08 08:29:52;;;;;;;1.92;1.27;;;;;;;22.68;37.26;97645.41;4867367;29;20028;-75
2021/05/08 08:32:18;;;;;;;1.23;0.95;;;;;;;22.31;37.85;97668.59;4861903;29;20093;-75
2021/05/08 08:34:43;;;;;;;1.60;0.88;;;;;;;21.89;38.93;97663.16;4860763;29;20447;-75
2021/05/08 08:37:09;;;;;;;2.65;1.00;;;;;;;21.25;39.67;97678.03;4877280;29;20028;-75
2021/05/08 08:39:35;;;;;;;1.38;1.25;;;;;;;20.90;41.29;97672.59;4875556;29;20409;-74
2021/05/08 08:42:02;;;;;;;4.65;1.77;;;;;;;20.51;41.44;97667.47;4868273;29;20430;-75
2021/05/08 08:44:27;;;;;;;5.13;1.20;;;;;;;20.05;41.67;97672.13;4885048;29;20124;-75
2021/05/08 08:46:54;;;;;;;5.45;2.25;;;;;;;19.54;43.21;97668.03;4851604;29;20039;-75
2021/05/08 08:49:20;;;;;;;3.47;1.70;;;;;;;19.24;42.96;97665.53;4863929;29;20033;-75
2021/05/08 08:51:45;;;;;;;2.38;1.52;;;;;;;19.10;42.81;97668.69;4879477;29;20036;-74
2021/05/08 08:54:14;;;;;;;4.85;1.20;;;;;;;18.82;43.29;97665.88;4870619;29;20037;-75
2021/05/08 08:56:43;;;;;;;4.93;2.20;;;;;;;18.69;42.95;97673.44;4877530;29;20092;-74
2021/05/08 08:59:20;;;;;;;2.30;1.38;;;;;;;18.77;43.12;97668.13;4868438;29;20041;-74
2021/05/08 09:01:46;;;;;;;3.38;1.23;;;;;;;19.22;41.76;97667.53;4869418;29;20499;-75
2021/05/08 09:04:16;;;;;;;5.63;1.67;;;;;;;19.55;41.22;97669.75;4845097;29;20041;-75
2021/05/08 09:06:43;;;;;;;3.38;1.17;;;;;;;19.56;40.73;97673.34;4850176;29;20106;-76
2021/05/08 09:09:09;;;;;;;2.63;1.23;;;;;;;19.46;40.91;97676.94;4864126;29;20072;-75
2021/05/08 09:11:53;;;;;;;2.35;1.50;;;;;;;19.41;40.21;97667.53;4879368;29;20536;-75
2021/05/08 09:14:19;;;;;;;31.02;21.55;;;;;;;19.15;41.29;97666.41;4872788;29;20128;-73
2021/05/08 09:17:04;;;;;;;15.40;2.45;;;;;;;19.06;41.12;97668.13;4879641;29;20091;-75
2021/05/08 09:19:30;;;;;;;18.42;5.53;;;;;;;19.34;40.46;97660.94;4871478;29;20489;-74
2021/05/08 09:21:56;;;;;;;20.38;4.20;;;;;;;19.78;37.74;97665.66;4848402;29;20055;-74
2021/05/08 09:24:22;;;;;;;8.55;3.42;;;;;;;20.12;36.90;97667.81;4880773;29;20033;-75
2021/05/08 09:26:52;;;;;;;95.05;6.10;;;;;;;19.76;37.44;97666.81;4882611;29;20035;-74
2021/05/08 09:29:24;;;;;;;5.53;1.60;;;;;;;19.79;36.43;97670.09;4891499;29;20028;-75
2021/05/08 09:31:57;;;;;;;9.57;1.98;;;;;;;19.82;36.57;97666.22;4857529;29;20059;-75
2021/05/08 09:34:23;;;;;;;65.53;4.45;;;;;;;20.14;35.64;97671.22;4872944;29;20482;-75
2021/05/08 09:36:52;;;;;;;7.57;1.88;;;;;;;20.89;33.45;97662.72;4851340;29;20109;-74
2021/05/08 09:39:31;;;;;;;1.80;1.30;;;;;;;21.80;32.25;97662.22;4882265;29;20029;-76
2021/05/08 09:41:57;;;;;;;8.23;3.13;;;;;;;21.86;30.65;97647.97;4876460;29;20029;-75
2021/05/08 09:44:26;;;;;;;7.28;1.35;;;;;;;22.09;30.39;97654.56;4873364;29;20093;-75
2021/05/08 09:46:52;;;;;;;2.67;1.25;;;;;;;22.23;30.58;97664.00;4861564;29;20033;-75
2021/05/08 09:49:20;;;;;;;13.23;1.60;;;;;;;22.28;31.04;97674.38;4861396;29;20496;-75
2021/05/08 09:51:57;;;;;;;4.57;1.50;;;;;;;22.61;29.84;97665.31;4866942;29;20032;-74
2021/05/08 09:54:23;;;;;;;4.45;1.67;;;;;;;22.63;29.56;97663.25;4866303;29;20033;-73
2021/05/08 09:56:52;;;;;;;5.35;1.20;;;;;;;22.50;29.28;97666.47;4866406;29;20540;-73
2021/05/08 09:59:35;;;;;;;1.70;1.35;;;;;;;22.07;30.43;97674.81;4858594;29;20464;-74
2021/05/08 10:02:06;;;;;;;10.73;2.00;;;;;;;21.80;30.80;97675.84;4869246;29;20040;-74
2021/05/08 10:04:44;;;;;;;9.55;2.92;;;;;;;21.50;31.93;97689.97;4882688;29;20057;-74
2021/05/08 10:07:10;;;;;;;7.93;2.70;;;;;;;21.48;31.00;97690.09;4852279;29;20036;-74
2021/05/08 10:09:38;;;;;;;8.38;3.10;;;;;;;21.48;31.28;97681.94;4870616;29;20033;-74
2021/05/08 10:12:06;;;;;;;5.95;2.53;;;;;;;21.46;31.77;97685.84;4870679;29;20032;-73
2021/05/08 10:14:36;;;;;;;8.43;2.42;;;;;;;21.39;32.28;97692.91;4893822;29;20056;-74
2021/05/08 10:17:01;;;;;;;4.90;1.90;;;;;;;21.25;31.33;97693.50;4878316;29;20382;-73
2021/05/08 10:19:32;;;;;;;6.00;2.00;;;;;;;21.02;33.00;97695.81;4862626;29;20048;-73
2021/05/08 10:21:59;;;;;;;4.53;1.63;;;;;;;20.73;32.75;97693.34;4875679;29;20189;-73
2021/05/08 10:24:28;;;;;;;5.43;2.72;;;;;;;20.62;32.60;97696.28;4856131;29;20532;-74
2021/05/08 10:26:58;;;;;;;3.97;1.08;;;;;;;20.81;32.81;97696.13;4863044;29;20430;-75
2021/05/08 10:29:26;;;;;;;2.67;1.13;;;;;;;21.19;32.29;97685.97;4863191;29;20500;-75
2021/05/08 10:31:54;;;;;;;8.73;1.40;;;;;;;21.23;31.35;97684.63;4862752;29;20143;-74
2021/05/08 10:34:39;;;;;;;1.63;1.25;;;;;;;21.35;31.17;97681.50;4854755;29;20085;-75
2021/05/08 10:37:11;;;;;;;5.90;1.58;;;;;;;21.68;31.43;97665.41;4842105;29;20032;-75
2021/05/08 10:40:03;;;;;;;5.93;1.70;;;;;;;22.12;29.98;97670.56;4856668;29;20047;-74
2021/05/08 10:42:41;;;;;;;4.60;2.72;;;;;;;22.82;28.61;97657.53;4882056;29;20664;-74
2021/05/08 10:45:13;;;;;;;12.25;7.03;;;;;;;23.14;27.96;97663.00;4891852;29;20084;-75
2021/05/08 10:47:54;;;;;;;2.58;2.15;;;;;;;23.43;28.57;97656.19;4871814;29;20532;-75
2021/05/08 10:50:25;;;;;;;10.18;4.22;;;;;;;23.19;28.33;97651.59;4865610;29;20176;-75
2021/05/08 10:53:04;;;;;;;9.30;3.70;;;;;;;22.93;27.95;97648.16;4873527;29;20064;-74
2021/05/08 10:55:32;;;;;;;4.47;2.20;;;;;;;22.43;28.79;97651.78;4873264;29;20476;-75
2021/05/08 10:58:16;;;;;;;9.45;4.80;;;;;;;21.90;28.89;97662.16;4876424;29;20576;-74
2021/05/08 11:00:57;;;;;;;12.73;9.05;;;;;;;21.30;30.79;97667.53;4888699;29;20024;-74
2021/05/08 11:03:45;;;;;;;10.45;4.13;;;;;;;21.52;30.37;97667.00;4897542;29;20032;-74
2021/05/08 11:06:11;;;;;;;5.03;3.70;;;;;;;20.99;31.13;97667.06;4878246;29;20029;-74
2021/05/08 11:08:36;;;;;;;2.30;1.88;;;;;;;21.03;30.46;97670.31;4879071;29;20028;-75
2021/05/08 11:11:13;;;;;;;4.25;1.45;;;;;;;21.54;30.27;97664.09;4874377;29;20067;-74
2021/05/08 11:13:45;;;;;;;2.00;1.60;;;;;;;22.31;30.09;97657.69;4871104;29;20493;-74
2021/05/08 11:16:18;;;;;;;8.90;1.98;;;;;;;22.71;27.33;97638.75;4884190;29;20048;-74
2021/05/08 11:18:46;;;;;;;9.98;1.45;;;;;;;23.18;26.57;97644.41;4862618;29;20041;-75
2021/05/08 11:21:11;;;;;;;5.28;1.55;;;;;;;25.23;26.48;97648.72;4867555;29;20025;-74
2021/05/08 11:23:43;;;;;;;2.75;1.30;;;;;;;26.37;23.28;97624.56;4888919;29;20025;-74
2021/05/08 11:26:24;;;;;;;5.28;1.50;;;;;;;27.41;22.35;97627.59;4891872;29;20078;-74
2021/05/08 11:28:56;;;;;;;1.45;1.30;;;;;;;27.26;22.08;97613.09;4896251;29;20036;-76
2021/05/08 11:31:26;;;;;;;6.18;2.08;;;;;;;27.40;23.59;97625.06;4864542;29;20123;-74